sensor_id;sensor_type;location;lat;lon;timestamp;temperature;humidity
25877;DHT22;13692;47.480;19.216;2023-07-29T00:01:59;21.00;99.90
25877;DHT22;13692;47.480;19.216;2023-07-29T00:04:26;20.90;99.90
25877;DHT22;13692;47.480;19.216;2023-07-29T00:06:53;20.90;99.90
25877;DHT22;13692;47.480;19.216;2023-07-29T00:09:20;20.90;99.90
25877;DHT22;13692;47.480;19.216;2023-07-29T00:11:47;20.90;99.90
25877;DHT22;13692;47.480;19.216;2023-07-29T00:14:14;20.90;99.90
25877;DHT22;13692;47.480;19.216;2023-07-29T00:16:41;20.90;99.90
25877;DHT22;13692;47.480;19.216;2023-07-29T00:19:09;20.90;99.90
25877;DHT22;13692;47.480;19.216;2023-07-29T00:21:36;20.80;99.90
25877;DHT22;13692;47.480;19.216;2023-07-29T00:24:04;20.70;99.90
25877;DHT22;13692;47.480;19.216;2023-07-29T00:26:31;20.70;99.90
25877;DHT22;13692;47.480;19.216;2023-07-29T00:28:59;20.70;99.90
25877;DHT22;13692;47.480;19.216;2023-07-29T00:31:26;20.60;99.90
25877;DHT22;13692;47.480;19.216;2023-07-29T00:33:53;20.50;99.90
25877;DHT22;13692;47.480;19.216;2023-07-29T00:36:20;20.40;99.90
25877;DHT22;13692;47.480;19.216;2023-07-29T00:38:47;20.40;99.90
25877;DHT22;13692;47.480;19.216;2023-07-29T00:41:14;20.40;99.90
25877;DHT22;13692;47.480;19.216;2023-07-29T00:43:42;20.40;99.90
25877;DHT22;13692;47.480;19.216;2023-07-29T00:46:09;20.40;99.90
25877;DHT22;13692;47.480;19.216;2023-07-29T00:48:37;20.30;99.90
25877;DHT22;13692;47.480;19.216;2023-07-29T00:51:05;20.30;99.90
25877;DHT22;13692;47.480;19.216;2023-07-29T00:53:32;20.30;99.90
25877;DHT22;13692;47.480;19.216;2023-07-29T00:56:00;20.20;99.90
25877;DHT22;13692;47.480;19.216;2023-07-29T00:58:27;20.20;99.90
25877;DHT22;13692;47.480;19.216;2023-07-29T01:00:54;20.20;99.90
25877;DHT22;13692;47.480;19.216;2023-07-29T01:03:22;20.20;99.90
25877;DHT22;13692;47.480;19.216;2023-07-29T01:08:46;20.20;99.90
25877;DHT22;13692;47.480;19.216;2023-07-29T01:14:11;20.10;99.90
25877;DHT22;13692;47.480;19.216;2023-07-29T01:16:50;20.10;99.90
25877;DHT22;13692;47.480;19.216;2023-07-29T01:22:16;20.00;99.90
25877;DHT22;13692;47.480;19.216;2023-07-29T01:24:44;20.00;99.90
25877;DHT22;13692;47.480;19.216;2023-07-29T01:27:11;19.80;99.90
25877;DHT22;13692;47.480;19.216;2023-07-29T01:29:38;19.80;99.90
25877;DHT22;13692;47.480;19.216;2023-07-29T01:32:11;19.80;99.90
25877;DHT22;13692;47.480;19.216;2023-07-29T01:37:27;19.70;99.90
25877;DHT22;13692;47.480;19.216;2023-07-29T01:39:59;19.70;99.90
25877;DHT22;13692;47.480;19.216;2023-07-29T01:42:27;19.70;99.90
25877;DHT22;13692;47.480;19.216;2023-07-29T01:44:56;19.70;99.90
25877;DHT22;13692;47.480;19.216;2023-07-29T01:47:23;19.60;99.90
25877;DHT22;13692;47.480;19.216;2023-07-29T01:49:50;19.60;99.90
25877;DHT22;13692;47.480;19.216;2023-07-29T01:52:17;19.60;99.90
25877;DHT22;13692;47.480;19.216;2023-07-29T01:54:44;19.60;99.90
25877;DHT22;13692;47.480;19.216;2023-07-29T01:57:11;19.60;99.90
25877;DHT22;13692;47.480;19.216;2023-07-29T01:59:38;19.70;99.90
25877;DHT22;13692;47.480;19.216;2023-07-29T02:02:05;19.70;99.90
25877;DHT22;13692;47.480;19.216;2023-07-29T02:04:32;19.50;99.90
25877;DHT22;13692;47.480;19.216;2023-07-29T02:06:59;19.50;99.90
25877;DHT22;13692;47.480;19.216;2023-07-29T02:09:26;19.40;99.90
25877;DHT22;13692;47.480;19.216;2023-07-29T02:11:54;19.50;99.90
25877;DHT22;13692;47.480;19.216;2023-07-29T02:14:21;19.50;99.90
25877;DHT22;13692;47.480;19.216;2023-07-29T02:16:48;19.40;99.90
25877;DHT22;13692;47.480;19.216;2023-07-29T02:19:15;19.40;99.90
25877;DHT22;13692;47.480;19.216;2023-07-29T02:21:42;19.30;99.90
25877;DHT22;13692;47.480;19.216;2023-07-29T02:24:09;19.30;99.90
25877;DHT22;13692;47.480;19.216;2023-07-29T02:26:36;19.40;99.90
25877;DHT22;13692;47.480;19.216;2023-07-29T02:29:03;19.30;99.90
25877;DHT22;13692;47.480;19.216;2023-07-29T02:31:30;19.20;99.90
25877;DHT22;13692;47.480;19.216;2023-07-29T02:33:57;19.20;99.90
25877;DHT22;13692;47.480;19.216;2023-07-29T02:36:24;19.10;99.90
25877;DHT22;13692;47.480;19.216;2023-07-29T02:38:51;19.00;99.90
25877;DHT22;13692;47.480;19.216;2023-07-29T02:41:18;19.00;99.90
25877;DHT22;13692;47.480;19.216;2023-07-29T02:43:49;19.00;99.90
25877;DHT22;13692;47.480;19.216;2023-07-29T02:46:16;19.00;99.90
25877;DHT22;13692;47.480;19.216;2023-07-29T02:48:44;19.00;99.90
25877;DHT22;13692;47.480;19.216;2023-07-29T02:51:11;18.90;99.90
25877;DHT22;13692;47.480;19.216;2023-07-29T02:53:38;18.80;99.90
25877;DHT22;13692;47.480;19.216;2023-07-29T02:56:05;18.80;99.90
25877;DHT22;13692;47.480;19.216;2023-07-29T02:58:36;18.80;99.90
25877;DHT22;13692;47.480;19.216;2023-07-29T03:01:05;18.80;99.90
25877;DHT22;13692;47.480;19.216;2023-07-29T03:03:32;18.80;99.90
25877;DHT22;13692;47.480;19.216;2023-07-29T03:06:05;18.80;99.90
25877;DHT22;13692;47.480;19.216;2023-07-29T03:08:33;18.80;99.90
25877;DHT22;13692;47.480;19.216;2023-07-29T03:11:06;18.80;99.90
25877;DHT22;13692;47.480;19.216;2023-07-29T03:13:34;18.70;99.90
25877;DHT22;13692;47.480;19.216;2023-07-29T03:16:09;18.70;99.90
25877;DHT22;13692;47.480;19.216;2023-07-29T03:18:36;18.60;99.90
25877;DHT22;13692;47.480;19.216;2023-07-29T03:21:03;18.60;99.90
25877;DHT22;13692;47.480;19.216;2023-07-29T03:23:31;18.60;99.90
25877;DHT22;13692;47.480;19.216;2023-07-29T03:26:00;18.60;99.90
25877;DHT22;13692;47.480;19.216;2023-07-29T03:28:28;18.50;99.90
25877;DHT22;13692;47.480;19.216;2023-07-29T03:30:56;18.50;99.90
25877;DHT22;13692;47.480;19.216;2023-07-29T03:33:24;18.50;99.90
25877;DHT22;13692;47.480;19.216;2023-07-29T03:35:52;18.50;99.90
25877;DHT22;13692;47.480;19.216;2023-07-29T03:38:19;18.60;99.90
25877;DHT22;13692;47.480;19.216;2023-07-29T03:40:46;18.60;99.90
25877;DHT22;13692;47.480;19.216;2023-07-29T03:43:13;18.70;99.90
25877;DHT22;13692;47.480;19.216;2023-07-29T03:45:40;18.70;99.90
25877;DHT22;13692;47.480;19.216;2023-07-29T03:48:07;18.70;99.90
25877;DHT22;13692;47.480;19.216;2023-07-29T03:50:35;18.80;99.90
25877;DHT22;13692;47.480;19.216;2023-07-29T03:53:03;18.80;99.90
25877;DHT22;13692;47.480;19.216;2023-07-29T03:55:31;19.00;99.90
25877;DHT22;13692;47.480;19.216;2023-07-29T03:57:59;19.10;99.90
25877;DHT22;13692;47.480;19.216;2023-07-29T04:00:27;19.30;99.90
25877;DHT22;13692;47.480;19.216;2023-07-29T04:02:54;19.50;99.90
25877;DHT22;13692;47.480;19.216;2023-07-29T04:05:21;19.60;99.90
25877;DHT22;13692;47.480;19.216;2023-07-29T04:07:48;19.70;99.90
25877;DHT22;13692;47.480;19.216;2023-07-29T04:10:15;19.70;99.90
25877;DHT22;13692;47.480;19.216;2023-07-29T04:12:43;19.70;99.90
25877;DHT22;13692;47.480;19.216;2023-07-29T04:15:10;19.80;99.90
25877;DHT22;13692;47.480;19.216;2023-07-29T04:17:37;20.30;99.90
25877;DHT22;13692;47.480;19.216;2023-07-29T04:20:04;20.80;99.90
25877;DHT22;13692;47.480;19.216;2023-07-29T04:22:31;21.20;99.90
25877;DHT22;13692;47.480;19.216;2023-07-29T04:24:58;21.60;99.90
25877;DHT22;13692;47.480;19.216;2023-07-29T04:27:25;22.00;99.90
25877;DHT22;13692;47.480;19.216;2023-07-29T04:29:52;22.40;99.90
25877;DHT22;13692;47.480;19.216;2023-07-29T04:32:19;22.60;99.90
25877;DHT22;13692;47.480;19.216;2023-07-29T04:34:46;23.00;99.90
25877;DHT22;13692;47.480;19.216;2023-07-29T04:37:13;23.00;99.90
25877;DHT22;13692;47.480;19.216;2023-07-29T04:39:40;23.20;99.90
25877;DHT22;13692;47.480;19.216;2023-07-29T04:42:07;23.60;99.90
25877;DHT22;13692;47.480;19.216;2023-07-29T04:44:34;24.00;99.90
25877;DHT22;13692;47.480;19.216;2023-07-29T04:47:01;24.40;99.90
25877;DHT22;13692;47.480;19.216;2023-07-29T04:49:28;24.70;99.90
25877;DHT22;13692;47.480;19.216;2023-07-29T04:51:55;24.90;99.90
25877;DHT22;13692;47.480;19.216;2023-07-29T04:54:22;25.00;99.90
25877;DHT22;13692;47.480;19.216;2023-07-29T04:56:49;25.20;99.90
25877;DHT22;13692;47.480;19.216;2023-07-29T04:59:15;25.20;99.90
25877;DHT22;13692;47.480;19.216;2023-07-29T05:01:43;25.30;99.90
25877;DHT22;13692;47.480;19.216;2023-07-29T05:04:10;25.50;99.90
25877;DHT22;13692;47.480;19.216;2023-07-29T05:06:37;25.50;99.90
25877;DHT22;13692;47.480;19.216;2023-07-29T05:09:19;25.30;99.90
25877;DHT22;13692;47.480;19.216;2023-07-29T05:11:49;25.10;99.90
25877;DHT22;13692;47.480;19.216;2023-07-29T05:14:17;25.40;99.90
25877;DHT22;13692;47.480;19.216;2023-07-29T05:16:44;26.10;99.90
25877;DHT22;13692;47.480;19.216;2023-07-29T05:19:12;26.80;99.90
25877;DHT22;13692;47.480;19.216;2023-07-29T05:21:39;27.30;99.90
25877;DHT22;13692;47.480;19.216;2023-07-29T05:24:06;27.80;99.90
25877;DHT22;13692;47.480;19.216;2023-07-29T05:26:33;27.80;99.90
25877;DHT22;13692;47.480;19.216;2023-07-29T05:29:01;27.90;99.90
25877;DHT22;13692;47.480;19.216;2023-07-29T05:31:28;27.80;99.90
25877;DHT22;13692;47.480;19.216;2023-07-29T05:33:55;27.70;99.90
25877;DHT22;13692;47.480;19.216;2023-07-29T05:36:22;27.90;99.90
25877;DHT22;13692;47.480;19.216;2023-07-29T05:38:51;28.50;99.90
25877;DHT22;13692;47.480;19.216;2023-07-29T05:41:18;29.00;99.90
25877;DHT22;13692;47.480;19.216;2023-07-29T05:43:45;29.10;99.90
25877;DHT22;13692;47.480;19.216;2023-07-29T05:46:12;28.90;99.90
25877;DHT22;13692;47.480;19.216;2023-07-29T05:48:39;29.10;99.90
25877;DHT22;13692;47.480;19.216;2023-07-29T05:51:06;29.10;99.90
25877;DHT22;13692;47.480;19.216;2023-07-29T05:53:33;29.10;99.90
25877;DHT22;13692;47.480;19.216;2023-07-29T05:56:00;29.00;99.90
25877;DHT22;13692;47.480;19.216;2023-07-29T05:58:27;29.20;99.90
25877;DHT22;13692;47.480;19.216;2023-07-29T06:00:54;29.30;99.90
25877;DHT22;13692;47.480;19.216;2023-07-29T06:03:21;29.40;99.90
25877;DHT22;13692;47.480;19.216;2023-07-29T06:05:49;29.50;99.90
25877;DHT22;13692;47.480;19.216;2023-07-29T06:08:20;29.40;99.90
25877;DHT22;13692;47.480;19.216;2023-07-29T06:10:47;29.00;99.90
25877;DHT22;13692;47.480;19.216;2023-07-29T06:13:14;28.80;99.90
25877;DHT22;13692;47.480;19.216;2023-07-29T06:15:41;28.60;99.90
25877;DHT22;13692;47.480;19.216;2023-07-29T06:18:08;28.50;99.90
25877;DHT22;13692;47.480;19.216;2023-07-29T06:20:35;28.40;99.90
25877;DHT22;13692;47.480;19.216;2023-07-29T06:23:02;28.30;99.90
25877;DHT22;13692;47.480;19.216;2023-07-29T06:25:29;28.20;99.90
25877;DHT22;13692;47.480;19.216;2023-07-29T06:27:56;28.20;99.90
25877;DHT22;13692;47.480;19.216;2023-07-29T06:30:24;28.30;99.90
25877;DHT22;13692;47.480;19.216;2023-07-29T06:32:51;28.30;99.90
25877;DHT22;13692;47.480;19.216;2023-07-29T06:35:19;28.60;99.90
25877;DHT22;13692;47.480;19.216;2023-07-29T06:37:45;29.00;99.90
25877;DHT22;13692;47.480;19.216;2023-07-29T06:40:12;29.10;99.90
25877;DHT22;13692;47.480;19.216;2023-07-29T06:42:39;29.40;99.90
25877;DHT22;13692;47.480;19.216;2023-07-29T06:45:07;30.00;99.90
25877;DHT22;13692;47.480;19.216;2023-07-29T06:47:34;30.60;99.90
25877;DHT22;13692;47.480;19.216;2023-07-29T06:50:01;30.80;99.90
25877;DHT22;13692;47.480;19.216;2023-07-29T06:52:28;31.20;99.90
25877;DHT22;13692;47.480;19.216;2023-07-29T06:54:55;31.60;99.90
25877;DHT22;13692;47.480;19.216;2023-07-29T06:57:22;31.80;98.80
25877;DHT22;13692;47.480;19.216;2023-07-29T06:59:49;31.60;98.80
25877;DHT22;13692;47.480;19.216;2023-07-29T07:02:16;31.70;98.50
25877;DHT22;13692;47.480;19.216;2023-07-29T07:04:43;31.90;98.40
25877;DHT22;13692;47.480;19.216;2023-07-29T07:07:10;32.20;98.70
25877;DHT22;13692;47.480;19.216;2023-07-29T07:09:37;32.50;97.90
25877;DHT22;13692;47.480;19.216;2023-07-29T07:12:05;32.70;96.40
25877;DHT22;13692;47.480;19.216;2023-07-29T07:14:32;32.80;95.90
25877;DHT22;13692;47.480;19.216;2023-07-29T07:16:59;32.90;96.00
25877;DHT22;13692;47.480;19.216;2023-07-29T07:19:26;33.20;94.70
25877;DHT22;13692;47.480;19.216;2023-07-29T07:21:53;33.20;94.50
25877;DHT22;13692;47.480;19.216;2023-07-29T07:24:20;33.20;94.30
25877;DHT22;13692;47.480;19.216;2023-07-29T07:26:47;33.40;93.80
25877;DHT22;13692;47.480;19.216;2023-07-29T07:29:13;33.30;93.70
25877;DHT22;13692;47.480;19.216;2023-07-29T07:31:40;33.30;93.50
25877;DHT22;13692;47.480;19.216;2023-07-29T07:34:07;33.30;93.50
25877;DHT22;13692;47.480;19.216;2023-07-29T07:36:34;33.50;93.20
25877;DHT22;13692;47.480;19.216;2023-07-29T07:39:02;33.50;92.50
25877;DHT22;13692;47.480;19.216;2023-07-29T07:41:29;33.40;92.30
25877;DHT22;13692;47.480;19.216;2023-07-29T07:43:56;33.50;92.10
25877;DHT22;13692;47.480;19.216;2023-07-29T07:46:23;33.50;92.00
25877;DHT22;13692;47.480;19.216;2023-07-29T07:48:50;33.40;91.70
25877;DHT22;13692;47.480;19.216;2023-07-29T07:51:17;33.40;91.60
25877;DHT22;13692;47.480;19.216;2023-07-29T07:53:44;33.30;91.60
25877;DHT22;13692;47.480;19.216;2023-07-29T07:56:11;33.20;91.50
25877;DHT22;13692;47.480;19.216;2023-07-29T07:58:38;33.10;91.50
25877;DHT22;13692;47.480;19.216;2023-07-29T08:01:07;33.20;91.10
25877;DHT22;13692;47.480;19.216;2023-07-29T08:03:35;33.40;91.00
25877;DHT22;13692;47.480;19.216;2023-07-29T08:06:02;33.40;90.60
25877;DHT22;13692;47.480;19.216;2023-07-29T08:08:29;33.50;90.60
25877;DHT22;13692;47.480;19.216;2023-07-29T08:10:57;33.60;90.20
25877;DHT22;13692;47.480;19.216;2023-07-29T08:13:24;33.50;90.20
25877;DHT22;13692;47.480;19.216;2023-07-29T08:15:52;33.40;90.00
25877;DHT22;13692;47.480;19.216;2023-07-29T08:18:20;33.50;89.20
25877;DHT22;13692;47.480;19.216;2023-07-29T08:20:58;33.50;88.10
25877;DHT22;13692;47.480;19.216;2023-07-29T08:23:26;33.50;88.20
25877;DHT22;13692;47.480;19.216;2023-07-29T08:25:54;33.50;87.20
25877;DHT22;13692;47.480;19.216;2023-07-29T08:28:23;33.50;86.50
25877;DHT22;13692;47.480;19.216;2023-07-29T08:30:50;33.30;87.10
25877;DHT22;13692;47.480;19.216;2023-07-29T08:33:17;33.20;87.00
25877;DHT22;13692;47.480;19.216;2023-07-29T08:35:44;33.40;87.20
25877;DHT22;13692;47.480;19.216;2023-07-29T08:38:11;33.60;85.50
25877;DHT22;13692;47.480;19.216;2023-07-29T08:40:42;33.80;86.10
25877;DHT22;13692;47.480;19.216;2023-07-29T08:43:12;34.00;84.80
25877;DHT22;13692;47.480;19.216;2023-07-29T08:45:41;34.20;83.30
25877;DHT22;13692;47.480;19.216;2023-07-29T08:48:11;34.20;83.80
25877;DHT22;13692;47.480;19.216;2023-07-29T08:50:39;34.30;83.30
25877;DHT22;13692;47.480;19.216;2023-07-29T08:53:08;34.30;82.70
25877;DHT22;13692;47.480;19.216;2023-07-29T08:55:35;34.60;82.10
25877;DHT22;13692;47.480;19.216;2023-07-29T08:58:02;34.40;79.80
25877;DHT22;13692;47.480;19.216;2023-07-29T09:00:30;34.10;80.80
25877;DHT22;13692;47.480;19.216;2023-07-29T09:02:58;34.10;81.20
25877;DHT22;13692;47.480;19.216;2023-07-29T09:05:29;34.30;80.70
25877;DHT22;13692;47.480;19.216;2023-07-29T09:07:56;34.20;80.20
25877;DHT22;13692;47.480;19.216;2023-07-29T09:10:25;34.20;80.00
25877;DHT22;13692;47.480;19.216;2023-07-29T09:12:53;34.20;80.50
25877;DHT22;13692;47.480;19.216;2023-07-29T09:15:30;34.30;80.00
25877;DHT22;13692;47.480;19.216;2023-07-29T09:17:58;34.30;78.80
25877;DHT22;13692;47.480;19.216;2023-07-29T09:20:28;34.40;78.40
25877;DHT22;13692;47.480;19.216;2023-07-29T09:22:58;34.50;78.40
25877;DHT22;13692;47.480;19.216;2023-07-29T09:25:29;34.70;77.50
25877;DHT22;13692;47.480;19.216;2023-07-29T09:27:59;34.90;77.10
25877;DHT22;13692;47.480;19.216;2023-07-29T09:30:27;35.10;76.80
25877;DHT22;13692;47.480;19.216;2023-07-29T09:32:58;35.10;76.30
25877;DHT22;13692;47.480;19.216;2023-07-29T09:35:28;35.10;75.90
25877;DHT22;13692;47.480;19.216;2023-07-29T09:37:55;35.00;75.70
25877;DHT22;13692;47.480;19.216;2023-07-29T09:40:22;34.90;75.00
25877;DHT22;13692;47.480;19.216;2023-07-29T09:42:50;35.00;74.80
25877;DHT22;13692;47.480;19.216;2023-07-29T09:45:24;35.00;73.30
25877;DHT22;13692;47.480;19.216;2023-07-29T09:47:56;34.90;73.90
25877;DHT22;13692;47.480;19.216;2023-07-29T09:50:24;34.90;73.50
25877;DHT22;13692;47.480;19.216;2023-07-29T09:52:53;34.90;71.80
25877;DHT22;13692;47.480;19.216;2023-07-29T09:55:23;34.80;72.20
25877;DHT22;13692;47.480;19.216;2023-07-29T09:57:56;34.60;73.10
25877;DHT22;13692;47.480;19.216;2023-07-29T10:00:24;34.50;72.60
25877;DHT22;13692;47.480;19.216;2023-07-29T10:02:52;34.60;73.40
25877;DHT22;13692;47.480;19.216;2023-07-29T10:05:21;34.20;72.10
25877;DHT22;13692;47.480;19.216;2023-07-29T10:07:48;33.70;71.40
25877;DHT22;13692;47.480;19.216;2023-07-29T10:10:17;33.60;72.50
25877;DHT22;13692;47.480;19.216;2023-07-29T10:12:44;33.30;73.50
25877;DHT22;13692;47.480;19.216;2023-07-29T10:15:11;33.20;72.50
25877;DHT22;13692;47.480;19.216;2023-07-29T10:17:39;33.10;73.00
25877;DHT22;13692;47.480;19.216;2023-07-29T10:20:08;33.00;73.50
25877;DHT22;13692;47.480;19.216;2023-07-29T10:22:43;33.00;73.80
25877;DHT22;13692;47.480;19.216;2023-07-29T10:25:22;32.80;74.20
25877;DHT22;13692;47.480;19.216;2023-07-29T10:27:53;32.50;74.80
25877;DHT22;13692;47.480;19.216;2023-07-29T10:30:24;32.20;75.10
25877;DHT22;13692;47.480;19.216;2023-07-29T10:32:52;32.00;76.10
25877;DHT22;13692;47.480;19.216;2023-07-29T10:35:20;31.90;77.00
25877;DHT22;13692;47.480;19.216;2023-07-29T10:37:47;31.80;77.70
25877;DHT22;13692;47.480;19.216;2023-07-29T10:40:18;31.70;77.70
25877;DHT22;13692;47.480;19.216;2023-07-29T10:43:06;31.70;78.10
25877;DHT22;13692;47.480;19.216;2023-07-29T10:45:40;31.80;78.20
25877;DHT22;13692;47.480;19.216;2023-07-29T10:48:39;31.80;78.40
25877;DHT22;13692;47.480;19.216;2023-07-29T10:51:23;31.60;76.00
25877;DHT22;13692;47.480;19.216;2023-07-29T10:54:20;31.50;78.80
25877;DHT22;13692;47.480;19.216;2023-07-29T10:56:49;31.60;78.80
25877;DHT22;13692;47.480;19.216;2023-07-29T11:01:56;31.70;79.00
25877;DHT22;13692;47.480;19.216;2023-07-29T11:04:24;31.70;78.20
25877;DHT22;13692;47.480;19.216;2023-07-29T11:12:47;31.20;80.20
25877;DHT22;13692;47.480;19.216;2023-07-29T11:15:30;31.20;80.50
25877;DHT22;13692;47.480;19.216;2023-07-29T11:17:59;31.00;80.50
25877;DHT22;13692;47.480;19.216;2023-07-29T11:20:31;31.00;80.70
25877;DHT22;13692;47.480;19.216;2023-07-29T11:23:03;30.90;81.40
25877;DHT22;13692;47.480;19.216;2023-07-29T11:25:31;30.80;81.40
25877;DHT22;13692;47.480;19.216;2023-07-29T11:28:00;30.90;81.30
25877;DHT22;13692;47.480;19.216;2023-07-29T11:30:32;30.90;81.30
25877;DHT22;13692;47.480;19.216;2023-07-29T11:33:00;30.80;81.20
25877;DHT22;13692;47.480;19.216;2023-07-29T11:35:27;31.00;81.20
25877;DHT22;13692;47.480;19.216;2023-07-29T11:37:55;31.10;81.60
25877;DHT22;13692;47.480;19.216;2023-07-29T11:40:25;31.30;81.20
25877;DHT22;13692;47.480;19.216;2023-07-29T11:42:52;31.30;80.80
25877;DHT22;13692;47.480;19.216;2023-07-29T11:45:21;31.30;81.10
25877;DHT22;13692;47.480;19.216;2023-07-29T11:47:58;31.00;81.50
25877;DHT22;13692;47.480;19.216;2023-07-29T11:50:25;30.90;82.40
25877;DHT22;13692;47.480;19.216;2023-07-29T11:52:52;30.90;82.60
25877;DHT22;13692;47.480;19.216;2023-07-29T11:55:19;30.80;82.10
25877;DHT22;13692;47.480;19.216;2023-07-29T11:57:50;30.80;82.10
25877;DHT22;13692;47.480;19.216;2023-07-29T12:00:18;30.80;82.20
25877;DHT22;13692;47.480;19.216;2023-07-29T12:02:46;30.70;82.30
25877;DHT22;13692;47.480;19.216;2023-07-29T12:05:14;30.60;82.10
25877;DHT22;13692;47.480;19.216;2023-07-29T12:07:43;30.70;81.40
25877;DHT22;13692;47.480;19.216;2023-07-29T12:10:11;30.70;82.20
25877;DHT22;13692;47.480;19.216;2023-07-29T12:12:48;30.70;82.20
25877;DHT22;13692;47.480;19.216;2023-07-29T12:15:23;30.60;82.40
25877;DHT22;13692;47.480;19.216;2023-07-29T12:17:54;30.50;82.80
25877;DHT22;13692;47.480;19.216;2023-07-29T12:20:24;30.40;83.30
25877;DHT22;13692;47.480;19.216;2023-07-29T12:22:52;30.30;83.70
25877;DHT22;13692;47.480;19.216;2023-07-29T12:25:20;30.20;83.80
25877;DHT22;13692;47.480;19.216;2023-07-29T12:27:47;30.20;83.90
25877;DHT22;13692;47.480;19.216;2023-07-29T12:30:14;30.30;83.20
25877;DHT22;13692;47.480;19.216;2023-07-29T12:32:45;30.50;82.70
25877;DHT22;13692;47.480;19.216;2023-07-29T12:35:13;30.60;82.90
25877;DHT22;13692;47.480;19.216;2023-07-29T12:37:41;30.70;82.60
25877;DHT22;13692;47.480;19.216;2023-07-29T12:40:24;30.80;81.90
25877;DHT22;13692;47.480;19.216;2023-07-29T12:42:51;30.80;82.20
25877;DHT22;13692;47.480;19.216;2023-07-29T12:45:19;30.70;81.70
25877;DHT22;13692;47.480;19.216;2023-07-29T12:47:46;30.70;81.90
25877;DHT22;13692;47.480;19.216;2023-07-29T12:50:13;30.60;80.80
25877;DHT22;13692;47.480;19.216;2023-07-29T12:52:40;30.50;80.80
25877;DHT22;13692;47.480;19.216;2023-07-29T12:55:07;30.40;81.40
25877;DHT22;13692;47.480;19.216;2023-07-29T12:57:35;30.40;81.60
25877;DHT22;13692;47.480;19.216;2023-07-29T13:00:03;30.50;81.60
25877;DHT22;13692;47.480;19.216;2023-07-29T13:02:31;30.50;82.00
25877;DHT22;13692;47.480;19.216;2023-07-29T13:04:58;30.50;82.30
25877;DHT22;13692;47.480;19.216;2023-07-29T13:07:25;30.60;82.10
25877;DHT22;13692;47.480;19.216;2023-07-29T13:09:52;30.60;82.20
25877;DHT22;13692;47.480;19.216;2023-07-29T13:12:20;30.70;81.90
25877;DHT22;13692;47.480;19.216;2023-07-29T13:14:47;30.80;81.80
25877;DHT22;13692;47.480;19.216;2023-07-29T13:17:14;30.90;81.60
25877;DHT22;13692;47.480;19.216;2023-07-29T13:19:41;30.80;80.70
25877;DHT22;13692;47.480;19.216;2023-07-29T13:22:08;30.90;80.50
25877;DHT22;13692;47.480;19.216;2023-07-29T13:24:35;30.80;80.50
25877;DHT22;13692;47.480;19.216;2023-07-29T13:27:02;30.70;79.80
25877;DHT22;13692;47.480;19.216;2023-07-29T13:29:28;30.60;79.20
25877;DHT22;13692;47.480;19.216;2023-07-29T13:31:55;30.60;79.30
25877;DHT22;13692;47.480;19.216;2023-07-29T13:34:22;30.60;79.30
25877;DHT22;13692;47.480;19.216;2023-07-29T13:36:49;30.60;79.10
25877;DHT22;13692;47.480;19.216;2023-07-29T13:39:16;30.50;78.90
25877;DHT22;13692;47.480;19.216;2023-07-29T13:41:43;30.50;79.00
25877;DHT22;13692;47.480;19.216;2023-07-29T13:44:10;30.50;79.60
25877;DHT22;13692;47.480;19.216;2023-07-29T13:46:37;30.40;80.00
25877;DHT22;13692;47.480;19.216;2023-07-29T13:49:05;30.40;80.20
25877;DHT22;13692;47.480;19.216;2023-07-29T13:51:32;30.30;80.20
25877;DHT22;13692;47.480;19.216;2023-07-29T13:53:59;30.40;80.50
25877;DHT22;13692;47.480;19.216;2023-07-29T13:56:26;30.40;80.40
25877;DHT22;13692;47.480;19.216;2023-07-29T13:58:53;30.40;80.20
25877;DHT22;13692;47.480;19.216;2023-07-29T14:01:19;30.40;80.40
25877;DHT22;13692;47.480;19.216;2023-07-29T14:03:47;30.50;80.50
25877;DHT22;13692;47.480;19.216;2023-07-29T14:06:13;30.40;80.50
25877;DHT22;13692;47.480;19.216;2023-07-29T14:08:40;30.40;80.90
25877;DHT22;13692;47.480;19.216;2023-07-29T14:11:08;30.40;81.00
25877;DHT22;13692;47.480;19.216;2023-07-29T14:13:35;30.30;81.50
25877;DHT22;13692;47.480;19.216;2023-07-29T14:16:02;30.40;81.60
25877;DHT22;13692;47.480;19.216;2023-07-29T14:18:30;30.50;81.20
25877;DHT22;13692;47.480;19.216;2023-07-29T14:20:57;30.50;80.70
25877;DHT22;13692;47.480;19.216;2023-07-29T14:23:24;30.50;81.30
25877;DHT22;13692;47.480;19.216;2023-07-29T14:25:51;30.50;81.10
25877;DHT22;13692;47.480;19.216;2023-07-29T14:28:18;30.50;81.30
25877;DHT22;13692;47.480;19.216;2023-07-29T14:30:45;30.40;81.20
25877;DHT22;13692;47.480;19.216;2023-07-29T14:33:12;30.50;81.90
25877;DHT22;13692;47.480;19.216;2023-07-29T14:35:40;30.50;82.00
25877;DHT22;13692;47.480;19.216;2023-07-29T14:38:07;30.40;82.10
25877;DHT22;13692;47.480;19.216;2023-07-29T14:40:34;30.20;81.70
25877;DHT22;13692;47.480;19.216;2023-07-29T14:43:00;30.10;81.30
25877;DHT22;13692;47.480;19.216;2023-07-29T14:45:27;30.00;80.70
25877;DHT22;13692;47.480;19.216;2023-07-29T14:47:54;30.00;80.90
25877;DHT22;13692;47.480;19.216;2023-07-29T14:50:21;30.00;81.20
25877;DHT22;13692;47.480;19.216;2023-07-29T14:52:48;30.00;81.30
25877;DHT22;13692;47.480;19.216;2023-07-29T14:55:15;30.00;81.40
25877;DHT22;13692;47.480;19.216;2023-07-29T14:57:42;30.10;81.60
25877;DHT22;13692;47.480;19.216;2023-07-29T15:00:10;30.20;81.50
25877;DHT22;13692;47.480;19.216;2023-07-29T15:02:37;30.30;82.20
25877;DHT22;13692;47.480;19.216;2023-07-29T15:05:05;30.30;81.70
25877;DHT22;13692;47.480;19.216;2023-07-29T15:07:32;30.20;81.40
25877;DHT22;13692;47.480;19.216;2023-07-29T15:09:59;30.20;82.60
25877;DHT22;13692;47.480;19.216;2023-07-29T15:12:26;30.20;82.60
25877;DHT22;13692;47.480;19.216;2023-07-29T15:14:53;30.20;82.60
25877;DHT22;13692;47.480;19.216;2023-07-29T15:17:19;30.20;83.00
25877;DHT22;13692;47.480;19.216;2023-07-29T15:19:46;30.20;83.10
25877;DHT22;13692;47.480;19.216;2023-07-29T15:22:16;30.30;83.30
25877;DHT22;13692;47.480;19.216;2023-07-29T15:24:43;30.20;82.60
25877;DHT22;13692;47.480;19.216;2023-07-29T15:27:10;30.20;82.80
25877;DHT22;13692;47.480;19.216;2023-07-29T15:29:38;30.20;82.60
25877;DHT22;13692;47.480;19.216;2023-07-29T15:32:05;30.20;82.90
25877;DHT22;13692;47.480;19.216;2023-07-29T15:34:33;30.30;83.30
25877;DHT22;13692;47.480;19.216;2023-07-29T15:37:01;30.40;83.30
25877;DHT22;13692;47.480;19.216;2023-07-29T15:39:28;30.40;82.40
25877;DHT22;13692;47.480;19.216;2023-07-29T15:41:56;30.40;83.20